Time;durP1;ratioP1;P1;durP2;ratioP2;P2;SDS_P1;SDS_P2;PMS_P1;PMS_P2;Temp;Humidity;BMP_temperature;BMP_pressure;BME280_temperature;BME280_humidity;BME280_pressure;Samples;Min_cycle;Max_cycle;Signal;HPM_P1;HPM_P2
2022/08/29 00:00:06;;;;;;;8.25;3.38;;;16.00;99.90;;;;;;5096579;28;20044;-71
2022/08/29 00:02:31;;;;;;;6.72;2.72;;;16.00;99.90;;;;;;5095180;28;20044;-71
2022/08/29 00:04:57;;;;;;;7.85;2.85;;;15.90;99.90;;;;;;5078231;28;20043;-72
2022/08/29 00:07:22;;;;;;;9.00;2.90;;;15.90;99.90;;;;;;5096365;28;20048;-71
2022/08/29 00:09:48;;;;;;;10.02;3.28;;;15.90;99.90;;;;;;5129053;27;20050;-71
2022/08/29 00:12:14;;;;;;;8.93;2.90;;;15.90;99.90;;;;;;5096286;28;20079;-71
2022/08/29 00:14:39;;;;;;;7.95;2.83;;;15.90;99.90;;;;;;5128901;27;20415;-71
2022/08/29 00:17:05;;;;;;;7.47;2.75;;;15.90;99.90;;;;;;5095956;28;20040;-71
2022/08/29 00:19:30;;;;;;;7.07;3.03;;;15.90;99.90;;;;;;5096161;28;20041;-71
2022/08/29 00:21:56;;;;;;;8.05;3.28;;;15.90;99.90;;;;;;5111790;28;20035;-71
2022/08/29 00:24:22;;;;;;;7.85;2.83;;;15.90;99.90;;;;;;5077985;28;20032;-71
2022/08/29 00:26:47;;;;;;;7.30;2.72;;;15.90;99.90;;;;;;5128718;27;20040;-72
2022/08/29 00:29:13;;;;;;;9.00;3.30;;;15.90;99.90;;;;;;5095987;28;20052;-71
2022/08/29 00:31:38;;;;;;;10.25;3.55;;;15.90;99.90;;;;;;5128964;27;20085;-71
2022/08/29 00:34:04;;;;;;;6.75;3.05;;;15.90;99.90;;;;;;5094620;28;20047;-71
2022/08/29 00:36:30;;;;;;;7.28;3.03;;;15.90;99.90;;;;;;5094413;28;20412;-71
2022/08/29 00:38:55;;;;;;;10.35;3.63;;;15.90;99.90;;;;;;5128557;27;20476;-71
2022/08/29 00:41:21;;;;;;;9.02;3.05;;;15.90;99.90;;;;;;5095818;28;20565;-71
2022/08/29 00:43:46;;;;;;;8.20;3.15;;;15.90;99.90;;;;;;5095644;28;20067;-71
2022/08/29 00:46:40;;;;;;;10.15;3.53;;;15.80;99.90;;;;;;5077316;28;20040;-72
2022/08/29 00:49:27;;;;;;;8.35;2.80;;;15.80;99.90;;;;;;5095724;28;20040;-72
2022/08/29 00:51:53;;;;;;;8.25;3.20;;;15.80;99.90;;;;;;5094527;28;20062;-71
2022/08/29 00:54:21;;;;;;;7.40;3.13;;;15.80;99.90;;;;;;5094159;28;20115;-71
2022/08/29 00:56:46;;;;;;;7.68;2.95;;;15.80;99.90;;;;;;5094018;28;20123;-71
2022/08/29 00:59:17;;;;;;;7.13;3.00;;;15.80;99.90;;;;;;5095481;28;20115;-71
2022/08/29 01:01:43;;;;;;;8.98;3.15;;;15.80;99.90;;;;;;5095351;28;20528;-71
2022/08/29 01:04:10;;;;;;;8.90;3.42;;;15.80;99.90;;;;;;5095229;28;20579;-72
2022/08/29 01:06:38;;;;;;;7.95;3.20;;;15.80;99.90;;;;;;5095675;28;20392;-72
2022/08/29 01:09:05;;;;;;;11.48;3.63;;;15.80;99.90;;;;;;5105619;28;20116;-71
2022/08/29 01:14:24;;;;;;;8.30;3.13;;;15.80;99.90;;;;;;5115118;28;20048;-71
2022/08/29 01:16:52;;;;;;;9.10;3.35;;;15.90;99.90;;;;;;5096978;28;20483;-71
2022/08/29 01:19:27;;;;;;;9.18;3.17;;;15.90;99.90;;;;;;5115307;28;20043;-72
2022/08/29 01:22:06;;;;;;;8.80;3.10;;;15.90;99.90;;;;;;5115537;28;20043;-71
2022/08/29 01:24:35;;;;;;;8.05;3.20;;;15.90;99.90;;;;;;5115424;28;20035;-71
2022/08/29 01:27:01;;;;;;;9.18;3.10;;;15.90;99.90;;;;;;5148276;27;20043;-71
2022/08/29 01:29:27;;;;;;;8.40;3.30;;;15.90;99.90;;;;;;5114192;28;20047;-71
2022/08/29 01:31:54;;;;;;;9.80;3.17;;;15.90;99.90;;;;;;5114037;28;20381;-72
2022/08/29 01:34:20;;;;;;;7.82;3.20;;;15.90;99.90;;;;;;5115084;28;20040;-71
2022/08/29 01:36:54;;;;;;;7.88;3.00;;;15.90;99.90;;;;;;5114283;28;20510;-71
2022/08/29 01:39:26;;;;;;;8.77;3.00;;;15.90;99.90;;;;;;5113960;28;20048;-71
2022/08/29 01:41:52;;;;;;;;;;;15.90;99.90;;;;;;5114069;28;20067;-71
2022/08/29 01:44:21;;;;;;;6.95;2.63;;;15.90;99.90;;;;;;5130910;27;19915;-72
2022/08/29 01:46:49;;;;;;;7.95;2.70;;;15.90;99.90;;;;;;5148024;27;20040;-71
2022/08/29 01:49:17;;;;;;;8.23;3.13;;;15.90;99.90;;;;;;5113492;28;20115;-71
2022/08/29 01:51:42;;;;;;;7.75;3.20;;;15.90;99.90;;;;;;5113686;28;20066;-71
2022/08/29 01:54:09;;;;;;;8.63;3.20;;;15.90;99.90;;;;;;5114680;28;20035;-71
2022/08/29 01:56:38;;;;;;;8.30;3.05;;;15.90;99.90;;;;;;5114617;28;20046;-71
2022/08/29 01:59:07;;;;;;;8.77;3.28;;;15.90;99.90;;;;;;5113178;28;20051;-71
2022/08/29 02:01:37;;;;;;;9.10;3.15;;;15.90;99.90;;;;;;5147994;27;20051;-72
2022/08/29 02:04:04;;;;;;;8.25;3.55;;;15.90;99.90;;;;;;5114487;27;20047;-71
2022/08/29 02:06:30;;;;;;;7.57;2.90;;;15.90;99.90;;;;;;5113177;28;20075;-71
2022/08/29 02:08:56;;;;;;;9.52;3.85;;;15.90;99.90;;;;;;5113027;28;20082;-71
2022/08/29 02:11:22;;;;;;;7.63;3.35;;;15.90;99.90;;;;;;5147708;27;20503;-71
2022/08/29 02:13:52;;;;;;;7.00;3.05;;;15.90;99.90;;;;;;5147263;27;20059;-71
2022/08/29 02:16:18;;;;;;;8.30;3.85;;;15.90;99.90;;;;;;5096348;28;20066;-71
2022/08/29 02:18:44;;;;;;;8.70;3.67;;;15.90;99.90;;;;;;5147185;27;20483;-71
2022/08/29 02:21:16;;;;;;;6.75;2.80;;;15.90;99.90;;;;;;5114240;28;20036;-71
2022/08/29 02:23:42;;;;;;;8.38;3.13;;;15.80;99.90;;;;;;5113188;28;20050;-71
2022/08/29 02:26:08;;;;;;;7.97;3.28;;;15.80;99.90;;;;;;5114050;28;20039;-71
2022/08/29 02:28:35;;;;;;;8.32;3.08;;;15.80;99.90;;;;;;5147229;27;20075;-71
2022/08/29 02:31:01;;;;;;;8.40;2.92;;;15.80;99.90;;;;;;5112777;28;20107;-71
2022/08/29 02:33:27;;;;;;;8.30;3.33;;;15.80;99.90;;;;;;5112744;28;20036;-71
2022/08/29 02:35:53;;;;;;;9.95;3.40;;;15.80;99.90;;;;;;5113953;28;20039;-71
2022/08/29 02:38:20;;;;;;;8.52;3.28;;;15.80;99.90;;;;;;5112511;28;20043;-71
2022/08/29 02:40:47;;;;;;;9.77;3.33;;;15.80;99.90;;;;;;5095653;28;20506;-71
2022/08/29 02:43:15;;;;;;;8.07;3.20;;;15.80;99.90;;;;;;5114117;28;20528;-71
2022/08/29 02:45:41;;;;;;;8.65;2.83;;;15.80;99.90;;;;;;5113981;28;20490;-71
2022/08/29 02:48:08;;;;;;;7.95;2.63;;;15.80;99.90;;;;;;5112829;28;20039;-71
2022/08/29 02:50:34;;;;;;;9.05;2.95;;;15.80;99.90;;;;;;5112557;28;20039;-71
2022/08/29 02:53:00;;;;;;;6.90;2.92;;;15.80;99.90;;;;;;5147054;27;20471;-71
2022/08/29 02:55:26;;;;;;;7.32;3.20;;;15.80;99.90;;;;;;5112464;28;20043;-71
2022/08/29 02:57:52;;;;;;;9.25;3.22;;;15.90;99.90;;;;;;5112600;28;20067;-71
2022/08/29 03:00:24;;;;;;;7.68;3.55;;;15.80;99.90;;;;;;5113778;28;20082;-71
2022/08/29 03:02:50;;;;;;;8.77;3.47;;;15.80;99.90;;;;;;5095408;28;20039;-71
2022/08/29 03:05:19;;;;;;;10.32;4.20;;;15.80;99.90;;;;;;5095440;28;20046;-71
2022/08/29 03:07:46;;;;;;;10.57;3.38;;;15.80;99.90;;;;;;5095232;28;20051;-71
2022/08/29 03:10:11;;;;;;;8.25;2.95;;;15.80;99.90;;;;;;5112306;28;20069;-71
2022/08/29 03:12:37;;;;;;;10.63;3.45;;;15.80;99.90;;;;;;5112424;28;20427;-70
2022/08/29 03:15:07;;;;;;;7.65;3.38;;;15.80;99.90;;;;;;5146502;27;20054;-71
2022/08/29 03:17:33;;;;;;;7.85;3.00;;;15.80;99.90;;;;;;5112039;28;20535;-71
2022/08/29 03:19:59;;;;;;;8.30;3.50;;;15.80;99.90;;;;;;5095478;28;20036;-71
2022/08/29 03:22:26;;;;;;;6.53;2.83;;;15.80;99.90;;;;;;5112186;28;20043;-71
2022/08/29 03:24:52;;;;;;;7.72;3.10;;;15.70;99.90;;;;;;5112474;28;20039;-71
2022/08/29 03:27:18;;;;;;;9.13;3.20;;;15.70;99.90;;;;;;5112451;28;20399;-71
2022/08/29 03:29:44;;;;;;;8.50;2.88;;;15.70;99.90;;;;;;5112065;28;20043;-71
2022/08/29 03:32:09;;;;;;;8.88;3.20;;;15.70;99.90;;;;;;5113372;28;20028;-71
2022/08/29 03:34:36;;;;;;;9.35;3.10;;;15.70;99.90;;;;;;5113274;28;20036;-71
2022/08/29 03:37:02;;;;;;;9.00;3.20;;;15.60;99.90;;;;;;5095187;28;20114;-71
2022/08/29 03:39:28;;;;;;;9.50;3.03;;;15.70;99.90;;;;;;5095246;28;20545;-71
2022/08/29 03:41:54;;;;;;;9.93;3.10;;;15.70;99.90;;;;;;5095062;28;20038;-71
2022/08/29 03:44:20;;;;;;;7.68;2.78;;;15.70;99.90;;;;;;5111993;28;20036;-71
2022/08/29 03:46:46;;;;;;;8.02;2.75;;;15.70;99.90;;;;;;5112295;28;20450;-71
2022/08/29 03:49:12;;;;;;;5.80;2.60;;;15.70;99.90;;;;;;5111900;28;20107;-71
2022/08/29 03:51:38;;;;;;;6.60;2.50;;;15.80;99.90;;;;;;5095152;28;20040;-71
2022/08/29 03:54:05;;;;;;;7.63;2.50;;;15.70;99.90;;;;;;5113313;28;20380;-71
2022/08/29 03:56:31;;;;;;;10.00;3.10;;;15.70;99.90;;;;;;5113090;28;20469;-71
2022/08/29 03:58:57;;;;;;;7.40;2.38;;;15.70;99.90;;;;;;5146918;27;20044;-71
2022/08/29 04:01:27;;;;;;;8.68;2.63;;;15.80;99.90;;;;;;5115908;28;20043;-71
2022/08/29 04:03:53;;;;;;;7.95;2.47;;;15.80;99.90;;;;;;5098538;28;20621;-71
2022/08/29 04:06:20;;;;;;;6.80;2.33;;;15.80;99.90;;;;;;5116736;28;20467;-71
2022/08/29 04:08:46;;;;;;;9.30;2.58;;;15.80;99.90;;;;;;5116775;28;20527;-71
2022/08/29 04:11:14;;;;;;;7.18;2.40;;;15.80;99.90;;;;;;5116879;28;20123;-71
2022/08/29 04:13:40;;;;;;;9.43;2.40;;;15.80;99.90;;;;;;5149566;27;20063;-71
2022/08/29 04:16:15;;;;;;;7.35;2.65;;;15.80;99.90;;;;;;5116730;28;20039;-71
2022/08/29 04:18:41;;;;;;;6.70;2.10;;;15.80;99.90;;;;;;5116306;28;20487;-71
2022/08/29 04:21:08;;;;;;;7.93;2.28;;;15.80;99.90;;;;;;5116558;28;20044;-71
2022/08/29 04:23:35;;;;;;;5.45;2.00;;;15.80;99.90;;;;;;5116442;28;20036;-71
2022/08/29 04:26:01;;;;;;;9.85;2.40;;;15.80;99.90;;;;;;5115203;28;20085;-71
2022/08/29 04:28:27;;;;;;;8.25;2.50;;;15.80;99.90;;;;;;5115056;28;20552;-71
2022/08/29 04:30:53;;;;;;;8.90;2.95;;;15.70;99.90;;;;;;5116322;28;20047;-71
2022/08/29 04:33:22;;;;;;;9.00;2.70;;;15.70;99.90;;;;;;5114965;28;20044;-71
2022/08/29 04:35:48;;;;;;;8.90;3.00;;;15.80;99.90;;;;;;5097977;28;20071;-71
2022/08/29 04:38:14;;;;;;;8.27;2.40;;;15.70;99.90;;;;;;5114937;28;20475;-71
2022/08/29 04:40:41;;;;;;;7.20;2.28;;;15.70;99.90;;;;;;5114849;28;20115;-71
2022/08/29 04:43:07;;;;;;;7.40;2.30;;;15.70;99.90;;;;;;5116170;28;20071;-71
2022/08/29 04:45:34;;;;;;;7.85;2.20;;;15.70;99.90;;;;;;5114817;28;20035;-71
2022/08/29 04:48:01;;;;;;;8.57;2.40;;;15.70;99.90;;;;;;5114962;28;20066;-71
2022/08/29 04:50:26;;;;;;;7.55;2.00;;;15.60;99.90;;;;;;5115809;28;20508;-71
2022/08/29 04:52:52;;;;;;;7.93;1.90;;;15.60;99.90;;;;;;5116039;28;20070;-71
2022/08/29 04:55:19;;;;;;;8.68;2.25;;;15.60;99.90;;;;;;5097572;28;20047;-71
2022/08/29 04:57:46;;;;;;;7.00;2.10;;;15.60;99.90;;;;;;5115800;28;20047;-70
2022/08/29 05:00:15;;;;;;;9.18;2.25;;;15.60;99.90;;;;;;5115629;28;20083;-70
2022/08/29 05:02:42;;;;;;;6.47;2.28;;;15.70;99.90;;;;;;5115855;28;20040;-70
2022/08/29 05:05:10;;;;;;;7.05;2.03;;;15.60;99.90;;;;;;5114490;28;20051;-70
2022/08/29 05:07:36;;;;;;;7.70;2.08;;;15.70;99.90;;;;;;5115684;28;20044;-70
2022/08/29 05:10:09;;;;;;;6.60;2.30;;;15.60;99.90;;;;;;5148046;27;20046;-70
2022/08/29 05:12:36;;;;;;;8.70;2.35;;;15.60;99.90;;;;;;5113823;28;20039;-69
2022/08/29 05:15:04;;;;;;;6.13;1.92;;;15.70;99.90;;;;;;5115432;28;20040;-70
2022/08/29 05:17:29;;;;;;;8.68;2.30;;;15.70;99.90;;;;;;5114306;28;20074;-71
2022/08/29 05:19:55;;;;;;;5.53;2.10;;;15.70;99.90;;;;;;5115462;28;20040;-70
2022/08/29 05:22:21;;;;;;;5.95;1.92;;;15.70;99.90;;;;;;5148401;27;20035;-71
2022/08/29 05:24:47;;;;;;;6.35;2.10;;;15.70;99.90;;;;;;5148677;27;20564;-71
2022/08/29 05:27:17;;;;;;;7.90;2.10;;;15.70;99.90;;;;;;5113928;28;20093;-70
2022/08/29 05:29:44;;;;;;;6.40;1.90;;;15.70;99.90;;;;;;5113876;28;20138;-70
2022/08/29 05:32:13;;;;;;;6.40;1.70;;;15.80;99.90;;;;;;5115140;28;20093;-71
2022/08/29 05:34:40;;;;;;;7.72;2.20;;;15.80;99.90;;;;;;5114119;28;20036;-70
2022/08/29 05:37:09;;;;;;;6.90;2.25;;;15.80;99.90;;;;;;5113713;28;20082;-71
2022/08/29 05:39:36;;;;;;;6.45;1.90;;;15.80;99.90;;;;;;5113863;28;20058;-70
2022/08/29 05:42:02;;;;;;;6.20;1.85;;;15.80;99.90;;;;;;5114917;28;20036;-71
2022/08/29 05:44:31;;;;;;;6.88;2.22;;;15.80;99.90;;;;;;5113897;28;20373;-70
2022/08/29 05:46:58;;;;;;;7.55;2.00;;;15.90;99.90;;;;;;5113615;28;20035;-70
2022/08/29 05:49:24;;;;;;;7.93;2.08;;;15.90;99.90;;;;;;5113718;28;20492;-71
2022/08/29 05:51:55;;;;;;;8.55;2.05;;;15.90;99.90;;;;;;5114768;28;20107;-71
2022/08/29 05:54:22;;;;;;;8.63;2.40;;;16.00;99.90;;;;;;5113611;28;20047;-71
2022/08/29 05:56:47;;;;;;;6.35;1.92;;;16.00;99.90;;;;;;5113483;28;20044;-71
2022/08/29 05:59:14;;;;;;;7.07;2.20;;;16.00;99.90;;;;;;5114654;27;20130;-71
2022/08/29 06:01:40;;;;;;;9.02;2.35;;;16.00;99.90;;;;;;5114720;28;20027;-71
2022/08/29 06:04:05;;;;;;;8.75;2.10;;;16.10;99.90;;;;;;5147917;27;20172;-71
2022/08/29 06:06:31;;;;;;;6.40;2.50;;;16.10;99.90;;;;;;5147903;27;20123;-71
2022/08/29 06:08:58;;;;;;;8.15;2.20;;;16.20;99.90;;;;;;5114365;28;20523;-71
2022/08/29 06:11:30;;;;;;;7.55;2.40;;;16.20;99.90;;;;;;5113163;28;20040;-70
2022/08/29 06:13:56;;;;;;;6.90;2.30;;;16.20;99.90;;;;;;5114242;28;20496;-70
2022/08/29 06:16:24;;;;;;;8.30;2.42;;;16.30;99.90;;;;;;5114320;28;20487;-71
2022/08/29 06:18:50;;;;;;;11.57;2.58;;;16.30;99.90;;;;;;5113043;28;20048;-71
2022/08/29 06:21:16;;;;;;;6.70;2.30;;;16.30;99.90;;;;;;5147180;27;20043;-71
2022/08/29 06:23:43;;;;;;;8.35;2.60;;;16.40;99.90;;;;;;5112757;28;20035;-71
2022/08/29 06:26:10;;;;;;;6.68;2.40;;;16.50;99.90;;;;;;5112927;28;20052;-71
2022/08/29 06:28:38;;;;;;;9.98;2.53;;;16.50;99.90;;;;;;5112852;28;20043;-71
2022/08/29 06:31:16;;;;;;;7.88;2.80;;;16.60;99.90;;;;;;5095708;28;20050;-71
2022/08/29 06:33:42;;;;;;;7.75;2.58;;;16.70;99.90;;;;;;5114073;28;20042;-71
2022/08/29 06:36:09;;;;;;;6.43;2.65;;;16.70;99.90;;;;;;5113928;28;20119;-71
2022/08/29 06:38:35;;;;;;;8.52;2.90;;;16.90;99.90;;;;;;5113836;28;20505;-71
2022/08/29 06:41:13;;;;;;;6.90;2.30;;;16.90;99.90;;;;;;5095621;28;20048;-71
2022/08/29 06:43:39;;;;;;;9.10;2.75;;;17.00;99.90;;;;;;5113970;28;20037;-71
2022/08/29 06:46:06;;;;;;;8.20;2.40;;;17.10;99.90;;;;;;5112609;28;20118;-71
2022/08/29 06:48:33;;;;;;;11.75;2.92;;;17.10;99.90;;;;;;5113703;28;20042;-71
2022/08/29 06:51:02;;;;;;;11.07;3.22;;;17.20;99.90;;;;;;5147047;27;20036;-71
2022/08/29 06:53:28;;;;;;;8.57;2.72;;;17.30;99.90;;;;;;5112556;28;20127;-71
2022/08/29 06:55:54;;;;;;;7.50;2.15;;;17.30;99.90;;;;;;5112483;28;20129;-71
2022/08/29 06:58:20;;;;;;;9.07;2.35;;;17.40;99.90;;;;;;5146885;27;20036;-71
2022/08/29 07:00:45;;;;;;;8.35;2.47;;;17.40;99.90;;;;;;5146681;27;20168;-71
2022/08/29 07:03:11;;;;;;;9.80;2.65;;;17.30;99.90;;;;;;5112283;28;20176;-71
2022/08/29 07:05:37;;;;;;;7.82;2.55;;;17.40;99.90;;;;;;5112633;28;20492;-72
2022/08/29 07:08:03;;;;;;;7.63;2.10;;;17.40;99.90;;;;;;5113616;28;20126;-71
2022/08/29 07:10:29;;;;;;;5.53;1.70;;;17.40;99.90;;;;;;5146667;27;20078;-71
2022/08/29 07:12:54;;;;;;;7.68;2.30;;;17.40;99.90;;;;;;5146466;27;20176;-71
2022/08/29 07:15:22;;;;;;;10.40;2.50;;;17.40;99.90;;;;;;5113629;28;20051;-71
2022/08/29 07:17:48;;;;;;;10.38;2.67;;;17.50;99.90;;;;;;5112123;28;20048;-71
2022/08/29 07:20:14;;;;;;;9.15;2.53;;;17.50;99.90;;;;;;5112235;28;20510;-71
2022/08/29 07:22:39;;;;;;;8.15;2.55;;;17.50;99.90;;;;;;5113643;28;20036;-71
2022/08/29 07:25:06;;;;;;;7.20;2.50;;;17.60;99.90;;;;;;5146590;27;20040;-71
2022/08/29 07:27:32;;;;;;;8.70;2.40;;;17.60;99.90;;;;;;5112189;28;20043;-71
2022/08/29 07:30:01;;;;;;;11.02;2.70;;;17.60;99.90;;;;;;5095148;28;20407;-71
2022/08/29 07:32:27;;;;;;;7.55;2.50;;;17.70;99.90;;;;;;5113194;28;20403;-71
2022/08/29 07:34:52;;;;;;;6.97;2.30;;;17.80;99.90;;;;;;5114828;28;20131;-71
2022/08/29 07:37:19;;;;;;;9.10;2.60;;;17.80;99.90;;;;;;5115983;28;20043;-71
2022/08/29 07:39:44;;;;;;;7.97;2.63;;;17.80;99.90;;;;;;5116073;28;20069;-71
2022/08/29 07:42:10;;;;;;;8.05;2.40;;;17.90;99.90;;;;;;5117280;28;20036;-71
2022/08/29 07:44:35;;;;;;;7.80;2.30;;;17.80;99.90;;;;;;5150479;27;20081;-71
2022/08/29 07:47:02;;;;;;;8.93;2.67;;;17.80;99.90;;;;;;5098911;28;20063;-71
2022/08/29 07:49:30;;;;;;;12.13;2.92;;;17.90;99.90;;;;;;5117383;28;20047;-71
2022/08/29 07:51:56;;;;;;;8.70;2.10;;;18.00;99.90;;;;;;5117047;28;20110;-71
2022/08/29 07:54:22;;;;;;;8.50;2.42;;;17.90;99.90;;;;;;5115695;28;20119;-72
2022/08/29 07:56:50;;;;;;;8.80;2.50;;;18.10;99.90;;;;;;5117051;28;20063;-71
2022/08/29 07:59:19;;;;;;;9.43;2.42;;;18.20;99.90;;;;;;5115676;28;20110;-72
2022/08/29 08:01:45;;;;;;;13.48;3.10;;;18.30;99.90;;;;;;5117004;28;20407;-72
2022/08/29 08:04:11;;;;;;;10.10;2.70;;;18.40;99.90;;;;;;5098924;28;20435;-71
2022/08/29 08:06:39;;;;;;;9.32;3.10;;;18.60;99.90;;;;;;5116760;28;20073;-72
2022/08/29 08:09:06;;;;;;;12.18;3.35;;;18.70;99.90;;;;;;5116822;28;20039;-72
2022/08/29 08:11:31;;;;;;;9.70;2.58;;;18.80;99.90;;;;;;5132881;27;20035;-71
2022/08/29 08:13:57;;;;;;;10.70;3.50;;;18.80;99.90;;;;;;5149693;27;20104;-71
2022/08/29 08:16:25;;;;;;;10.13;3.25;;;18.90;99.90;;;;;;5115448;28;20563;-72
2022/08/29 08:18:52;;;;;;;10.10;2.60;;;19.10;99.90;;;;;;5098258;28;20119;-72
2022/08/29 08:21:17;;;;;;;8.85;2.72;;;19.10;99.90;;;;;;5116604;28;20092;-72
2022/08/29 08:23:43;;;;;;;11.65;2.92;;;19.10;99.90;;;;;;5116577;28;20471;-72
2022/08/29 08:26:10;;;;;;;12.18;3.15;;;19.10;99.90;;;;;;5116534;28;20043;-72
2022/08/29 08:28:36;;;;;;;10.45;2.70;;;19.20;99.90;;;;;;5116359;28;20050;-72
2022/08/29 08:31:05;;;;;;;11.07;3.15;;;19.30;99.90;;;;;;5116327;28;20039;-72
2022/08/29 08:33:31;;;;;;;8.85;3.00;;;19.30;99.90;;;;;;5116460;28;20392;-72
2022/08/29 08:35:57;;;;;;;9.63;2.80;;;19.40;99.90;;;;;;5115176;28;20093;-72
2022/08/29 08:38:23;;;;;;;11.98;3.22;;;19.30;99.90;;;;;;5116151;28;20075;-72
2022/08/29 08:41:09;;;;;;;8.88;3.08;;;19.30;99.90;;;;;;5149243;27;20040;-72
2022/08/29 08:44:06;;;;;;;10.55;3.22;;;19.30;99.90;;;;;;5115044;28;20039;-72
2022/08/29 08:46:42;;;;;;;9.48;2.80;;;19.30;99.90;;;;;;5081636;28;20377;-71
2022/08/29 08:49:39;;;;;;;11.85;2.95;;;19.30;99.90;;;;;;5114695;28;20032;-72
2022/08/29 08:52:26;;;;;;;14.68;3.10;;;19.30;99.90;;;;;;5097647;28;20048;-72
2022/08/29 08:54:56;;;;;;;10.98;2.85;;;19.30;99.90;;;;;;5114721;28;20125;-72
2022/08/29 08:57:27;;;;;;;13.73;3.33;;;19.30;99.90;;;;;;5114615;28;20040;-72
2022/08/29 08:59:57;;;;;;;10.85;3.25;;;19.30;99.90;;;;;;5114805;28;20460;-72
2022/08/29 09:02:50;;;;;;;10.43;3.30;;;19.40;99.90;;;;;;5097650;28;20372;-72
2022/08/29 09:05:36;;;;;;;10.98;3.28;;;19.40;99.90;;;;;;5114393;28;20173;-72
2022/08/29 09:08:28;;;;;;;11.63;3.45;;;19.30;99.90;;;;;;5114378;28;20075;-72
2022/08/29 09:10:54;;;;;;;;;;;19.30;99.90;;;;;;5115075;28;20054;-72
2022/08/29 09:13:50;;;;;;;8.38;3.17;;;19.30;99.90;;;;;;5148657;27;19920;-72
2022/08/29 09:16:30;;;;;;;11.15;3.47;;;19.20;99.90;;;;;;5114259;28;20044;-72
2022/08/29 09:19:02;;;;;;;9.90;3.60;;;19.20;99.90;;;;;;5114051;28;20114;-72
2022/08/29 09:21:31;;;;;;;9.95;3.50;;;19.20;99.90;;;;;;5115314;28;20484;-72
2022/08/29 09:24:00;;;;;;;12.73;3.38;;;19.20;99.90;;;;;;5115463;28;20028;-72
2022/08/29 09:26:26;;;;;;;11.23;3.30;;;19.30;99.90;;;;;;5114048;28;20039;-72
2022/08/29 09:28:53;;;;;;;11.93;3.53;;;19.30;99.90;;;;;;5148560;27;20039;-72
2022/08/29 09:31:31;;;;;;;10.50;3.50;;;19.30;99.90;;;;;;5113912;28;20052;-72
2022/08/29 09:34:01;;;;;;;12.88;4.03;;;19.40;99.90;;;;;;5115338;28;20043;-72
2022/08/29 09:36:33;;;;;;;9.15;3.38;;;19.40;99.90;;;;;;5114403;28;20043;-72
2022/08/29 09:39:16;;;;;;;10.57;3.53;;;19.40;99.90;;;;;;5096693;28;20484;-72
2022/08/29 09:41:45;;;;;;;13.75;4.13;;;19.40;99.90;;;;;;5113512;28;20080;-72
2022/08/29 09:44:24;;;;;;;10.60;3.58;;;19.50;99.90;;;;;;5113628;28;20496;-72
2022/08/29 09:47:13;;;;;;;12.95;3.65;;;19.40;99.90;;;;;;5113567;28;20039;-72
2022/08/29 09:49:43;;;;;;;10.98;3.47;;;19.40;99.90;;;;;;5096866;28;20096;-72
2022/08/29 09:52:22;;;;;;;11.93;3.47;;;19.40;99.90;;;;;;5113739;28;20066;-72
2022/08/29 09:54:48;;;;;;;12.15;4.40;;;19.50;99.90;;;;;;5147859;27;20126;-72
2022/08/29 09:57:26;;;;;;;9.77;3.40;;;19.40;99.90;;;;;;5114057;28;20111;-72
2022/08/29 10:00:11;;;;;;;10.45;3.28;;;19.40;99.90;;;;;;5114711;28;20533;-72
2022/08/29 10:02:49;;;;;;;8.60;3.15;;;19.50;99.90;;;;;;5113536;28;20059;-72
2022/08/29 10:05:36;;;;;;;11.85;3.70;;;19.40;99.90;;;;;;5113311;28;20031;-72
2022/08/29 10:08:04;;;;;;;9.73;3.67;;;19.40;99.90;;;;;;5113522;28;20043;-72
2022/08/29 10:10:35;;;;;;;10.48;3.55;;;19.40;99.90;;;;;;5113078;28;20047;-72
2022/08/29 10:13:25;;;;;;;8.98;3.58;;;19.40;99.90;;;;;;5096472;28;20066;-72
2022/08/29 10:16:11;;;;;;;9.57;3.30;;;19.40;99.90;;;;;;5147795;27;20048;-72
2022/08/29 10:18:46;;;;;;;11.73;4.47;;;19.40;99.90;;;;;;5112956;28;20050;-72
2022/08/29 10:21:36;;;;;;;11.00;3.50;;;19.40;99.90;;;;;;5096036;28;20047;-72
2022/08/29 10:24:14;;;;;;;10.07;3.85;;;19.40;99.90;;;;;;5096068;28;20070;-72
2022/08/29 10:27:14;;;;;;;9.00;3.83;;;19.50;99.90;;;;;;5147341;27;20042;-72
2022/08/29 10:29:58;;;;;;;10.60;4.00;;;19.60;99.90;;;;;;5112859;28;20043;-72
2022/08/29 10:32:30;;;;;;;10.80;3.80;;;19.60;99.90;;;;;;5147170;27;20035;-72
2022/08/29 10:35:29;;;;;;;11.68;3.92;;;19.70;99.90;;;;;;5114096;28;20086;-72
2022/08/29 10:38:03;;;;;;;10.02;3.63;;;19.60;99.90;;;;;;5112821;28;20142;-72
2022/08/29 10:40:47;;;;;;;12.02;3.72;;;19.70;99.90;;;;;;5113006;28;20039;-72
2022/08/29 10:43:31;;;;;;;9.57;3.53;;;19.80;99.90;;;;;;5113961;28;20051;-72
2022/08/29 10:46:09;;;;;;;9.57;3.60;;;19.80;99.90;;;;;;5095850;28;20043;-72
2022/08/29 10:48:40;;;;;;;11.18;3.80;;;19.70;99.90;;;;;;5113932;28;20043;-72
2022/08/29 10:51:20;;;;;;;11.88;3.70;;;19.80;99.90;;;;;;5112940;28;20403;-72
2022/08/29 10:53:57;;;;;;;11.30;3.28;;;19.70;99.90;;;;;;5095472;28;20074;-72
2022/08/29 10:56:38;;;;;;;12.43;4.25;;;19.80;99.90;;;;;;5095435;28;20059;-72
2022/08/29 10:59:17;;;;;;;9.40;3.38;;;19.80;99.90;;;;;;5112462;28;20054;-73
2022/08/29 11:01:56;;;;;;;10.10;3.42;;;19.80;99.90;;;;;;5095529;28;20079;-72
2022/08/29 11:04:44;;;;;;;10.85;3.80;;;19.80;99.90;;;;;;5112566;28;20048;-72
2022/08/29 11:07:15;;;;;;;10.50;3.50;;;19.90;99.90;;;;;;5112399;28;20046;-72
2022/08/29 11:09:46;;;;;;;9.73;3.50;;;19.90;99.90;;;;;;5116099;28;20482;-72
2022/08/29 11:12:39;;;;;;;11.13;3.60;;;19.90;99.90;;;;;;5117951;28;20031;-72
2022/08/29 11:15:20;;;;;;;11.02;3.22;;;20.00;99.90;;;;;;5133656;27;20516;-73
2022/08/29 11:17:54;;;;;;;9.57;3.47;;;20.00;99.90;;;;;;5116519;28;20050;-73
2022/08/29 11:20:27;;;;;;;11.05;3.33;;;20.10;99.90;;;;;;5116752;28;20080;-73
2022/08/29 11:23:25;;;;;;;9.93;3.38;;;20.10;99.90;;;;;;5116415;28;20040;-73
2022/08/29 11:25:51;;;;;;;14.50;3.92;;;20.20;99.90;;;;;;5109234;28;20130;-73
2022/08/29 11:28:37;;;;;;;14.00;3.97;;;20.20;99.90;;;;;;5151006;27;20130;-73
2022/08/29 11:31:16;;;;;;;9.07;3.20;;;20.10;99.90;;;;;;5117584;28;20134;-73
2022/08/29 11:34:06;;;;;;;11.07;3.40;;;20.10;99.90;;;;;;5099188;28;20044;-73
2022/08/29 11:36:47;;;;;;;15.00;4.28;;;20.20;99.90;;;;;;5116227;28;20031;-73
2022/08/29 11:39:44;;;;;;;14.98;3.55;;;20.20;99.90;;;;;;5099109;28;20123;-73
2022/08/29 11:42:12;;;;;;;11.55;3.13;;;20.20;99.90;;;;;;5116124;28;20042;-73
2022/08/29 11:45:06;;;;;;;8.85;3.60;;;20.20;99.90;;;;;;5098896;28;20047;-73
2022/08/29 11:47:33;;;;;;;9.52;2.92;;;20.30;99.90;;;;;;5113116;28;20073;-73
2022/08/29 11:50:21;;;;;;;8.80;2.67;;;20.30;99.90;;;;;;5115882;28;20120;-73
2022/08/29 11:53:12;;;;;;;11.20;2.65;;;20.30;99.90;;;;;;5116123;28;20438;-74
2022/08/29 11:55:41;;;;;;;8.05;2.83;;;20.30;99.90;;;;;;5098838;28;20054;-73
2022/08/29 11:58:26;;;;;;;8.48;2.70;;;20.30;99.90;;;;;;5115708;28;20044;-74
2022/08/29 12:00:57;;;;;;;11.70;3.10;;;20.50;99.90;;;;;;5115394;28;20047;-73
2022/08/29 12:03:31;;;;;;;11.10;2.92;;;20.60;99.90;;;;;;5115587;28;20042;-73
2022/08/29 12:06:21;;;;;;;6.78;2.60;;;20.80;99.90;;;;;;5098636;28;20118;-73
2022/08/29 12:08:52;;;;;;;11.35;2.92;;;20.90;99.90;;;;;;5115625;28;20055;-74
2022/08/29 12:11:18;;;;;;;10.52;2.83;;;21.00;99.90;;;;;;5115886;28;20103;-73
2022/08/29 12:13:47;;;;;;;7.70;2.92;;;20.90;99.90;;;;;;5115301;28;20069;-73
2022/08/29 12:16:22;;;;;;;7.45;2.90;;;21.00;99.90;;;;;;5115405;28;20051;-73
2022/08/29 12:18:56;;;;;;;8.75;2.88;;;21.00;99.90;;;;;;5149735;27;20050;-72
2022/08/29 12:21:37;;;;;;;9.05;3.10;;;21.00;99.90;;;;;;5114894;28;20040;-73
2022/08/29 12:24:25;;;;;;;9.27;3.08;;;21.00;99.90;;;;;;5149475;27;20039;-73
2022/08/29 12:26:51;;;;;;;11.10;2.97;;;21.10;99.90;;;;;;5116762;28;20365;-73
2022/08/29 12:29:21;;;;;;;9.90;2.95;;;21.00;99.90;;;;;;5149505;27;20488;-73
2022/08/29 12:32:10;;;;;;;11.45;2.97;;;21.00;99.90;;;;;;5116387;28;20048;-73
2022/08/29 12:35:09;;;;;;;7.88;2.95;;;21.10;99.90;;;;;;5097929;28;20093;-72
2022/08/29 12:37:51;;;;;;;10.23;3.00;;;21.10;99.90;;;;;;5114926;28;20044;-72
2022/08/29 12:40:29;;;;;;;12.45;2.63;;;21.10;99.90;;;;;;5098240;28;20118;-73
2022/08/29 12:43:14;;;;;;;8.50;2.55;;;21.20;99.90;;;;;;5115279;28;20071;-72
2022/08/29 12:45:43;;;;;;;9.07;3.38;;;21.20;99.90;;;;;;5114730;28;20476;-73
2022/08/29 12:48:15;;;;;;;9.57;2.58;;;21.20;99.90;;;;;;5114819;28;20126;-73
2022/08/29 12:50:44;;;;;;;8.52;2.60;;;21.30;99.90;;;;;;5116079;28;20044;-73
2022/08/29 12:53:29;;;;;;;7.05;2.42;;;21.40;99.90;;;;;;5097720;28;20096;-72
2022/08/29 12:55:57;;;;;;;10.05;2.97;;;21.50;99.90;;;;;;5114601;28;20044;-73
2022/08/29 12:59:01;;;;;;;5.82;2.60;;;21.40;99.90;;;;;;5114726;28;20474;-72
2022/08/29 13:01:31;;;;;;;10.68;2.53;;;21.40;99.90;;;;;;5097196;28;20039;-72
2022/08/29 13:04:09;;;;;;;9.18;3.22;;;21.30;99.90;;;;;;5115671;28;20119;-72
2022/08/29 13:06:35;;;;;;;7.97;2.50;;;21.40;99.90;;;;;;5115833;28;20043;-72